createdAt,value
2023-02-11T00:01:33.595Z,69.01
2023-02-11T00:04:03.205Z,67.19
2023-02-11T00:06:33.651Z,67.28
2023-02-11T00:09:02.324Z,67.69
2023-02-11T00:11:30.796Z,67.22
2023-02-11T00:14:04.983Z,67.54
2023-02-11T00:16:33.131Z,67.64
2023-02-11T00:19:05.834Z,67.92
2023-02-11T00:21:35.310Z,67.67
2023-02-11T00:24:04.398Z,67.53
2023-02-11T00:26:35.572Z,69.90
2023-02-11T00:29:05.580Z,76.85
2023-02-11T00:31:34.529Z,71.36
2023-02-11T00:34:02.889Z,69.73
2023-02-11T00:36:31.828Z,75.28
2023-02-11T00:39:01.066Z,71.19
2023-02-11T00:41:30.124Z,68.36
2023-02-11T00:44:02.085Z,72.06
2023-02-11T00:46:30.388Z,68.69
2023-02-11T00:48:58.753Z,73.02
2023-02-11T00:51:29.057Z,70.51
2023-02-11T00:53:58.196Z,72.52
2023-02-11T00:56:27.260Z,73.30
2023-02-11T00:58:57.770Z,71.09
2023-02-11T01:01:26.948Z,73.31
2023-02-11T01:03:55.175Z,76.59
2023-02-11T01:06:25.348Z,70.81
2023-02-11T01:08:53.604Z,69.52
2023-02-11T01:11:22.780Z,68.82
2023-02-11T01:13:51.688Z,70.53
2023-02-11T01:16:21.570Z,68.51
2023-02-11T01:18:50.009Z,71.34
2023-02-11T01:21:19.378Z,71.68
2023-02-11T01:23:47.665Z,71.51
2023-02-11T01:26:15.950Z,69.20
2023-02-11T01:28:44.617Z,67.25
2023-02-11T01:31:12.943Z,72.48
2023-02-11T01:33:41.207Z,71.78
2023-02-11T01:36:11.498Z,72.01
2023-02-11T01:38:41.362Z,68.99
2023-02-11T01:41:12.574Z,68.31
2023-02-11T01:43:44.027Z,66.98
2023-02-11T01:46:41.580Z,67.94
2023-02-11T01:49:15.293Z,68.43
2023-02-11T01:51:51.445Z,70.67
2023-02-11T01:54:43.753Z,69.78
2023-02-11T01:57:25.421Z,67.10
2023-02-11T01:59:59.901Z,72.15
2023-02-11T02:02:47.099Z,69.62
2023-02-11T02:05:25.341Z,67.38
2023-02-11T02:08:00.695Z,65.77
2023-02-11T02:10:31.134Z,65.26
2023-02-11T02:12:59.326Z,66.48
2023-02-11T02:15:32.476Z,65.44
2023-02-11T02:18:06.266Z,66.99
2023-02-11T02:20:53.009Z,73.06
2023-02-11T02:23:26.798Z,71.93
2023-02-11T02:26:07.365Z,69.36
2023-02-11T02:29:04.143Z,67.78
2023-02-11T02:32:19.947Z,65.57
2023-02-11T02:34:58.015Z,68.06
2023-02-11T02:37:51.069Z,67.92
2023-02-11T02:40:46.281Z,68.08
2023-02-11T02:43:17.062Z,66.23
2023-02-11T02:45:45.410Z,65.26
2023-02-11T02:48:33.427Z,65.69
2023-02-11T02:51:35.204Z,65.90
2023-02-11T02:54:25.113Z,66.49
2023-02-11T02:57:14.974Z,66.50
2023-02-11T02:59:49.504Z,65.43
2023-02-11T03:02:32.218Z,69.82
2023-02-11T03:05:12.309Z,67.51
2023-02-11T03:07:48.981Z,66.69
2023-02-11T03:10:23.263Z,66.24
2023-02-11T03:12:53.850Z,67.82
2023-02-11T03:15:25.174Z,70.38
2023-02-11T03:17:56.910Z,69.12
2023-02-11T03:20:25.793Z,71.11
2023-02-11T03:23:00.675Z,67.61
2023-02-11T03:25:34.873Z,67.05
2023-02-11T03:28:16.363Z,68.13
2023-02-11T03:31:00.573Z,67.57
2023-02-11T03:33:37.906Z,67.14
2023-02-11T03:36:12.553Z,66.41
2023-02-11T03:38:48.466Z,67.65
2023-02-11T03:41:22.017Z,68.21
2023-02-11T03:43:54.981Z,70.19
2023-02-11T03:46:30.896Z,68.60
2023-02-11T03:49:11.793Z,69.21
2023-02-11T03:51:41.117Z,68.15
2023-02-11T03:54:14.610Z,67.28
2023-02-11T03:56:54.918Z,67.77
2023-02-11T03:59:23.341Z,69.05
2023-02-11T04:01:52.621Z,74.03
2023-02-11T04:04:21.347Z,77.05
2023-02-11T04:06:49.701Z,73.51
2023-02-11T04:09:17.821Z,71.64
2023-02-11T04:11:45.962Z,70.92
2023-02-11T04:14:14.126Z,69.91
2023-02-11T04:16:42.260Z,70.23
2023-02-11T04:19:10.680Z,66.74
2023-02-11T04:21:38.858Z,69.02
2023-02-11T04:24:07.145Z,66.79
2023-02-11T04:26:35.618Z,66.15
2023-02-11T04:29:04.000Z,67.01
2023-02-11T04:31:32.289Z,70.42
2023-02-11T04:34:00.699Z,74.87
2023-02-11T04:36:28.762Z,68.77
2023-02-11T04:38:57.022Z,70.71
2023-02-11T04:41:25.216Z,69.24
2023-02-11T04:43:53.573Z,66.44
2023-02-11T04:46:21.914Z,66.12
2023-02-11T04:48:50.340Z,66.11
2023-02-11T04:51:18.881Z,66.58
2023-02-11T04:53:47.434Z,65.93
2023-02-11T04:56:15.569Z,66.27
2023-02-11T04:58:43.854Z,69.09
2023-02-11T05:01:15.064Z,66.83
2023-02-11T05:03:44.350Z,65.92
2023-02-11T05:06:13.153Z,67.82
2023-02-11T05:08:41.364Z,73.97
2023-02-11T05:11:16.232Z,73.06
2023-02-11T05:13:44.614Z,69.64
2023-02-11T05:16:14.237Z,68.86
2023-02-11T05:18:44.001Z,70.54
2023-02-11T05:21:15.212Z,76.08
2023-02-11T05:23:45.540Z,72.74
2023-02-11T05:26:15.084Z,76.17
2023-02-11T05:28:44.522Z,72.31
2023-02-11T05:31:14.974Z,69.32
2023-02-11T05:33:43.359Z,67.47
2023-02-11T05:36:13.561Z,75.28
2023-02-11T05:38:42.738Z,75.03
2023-02-11T05:41:12.122Z,74.26
2023-02-11T05:43:40.410Z,72.10
2023-02-11T05:46:08.839Z,67.20
2023-02-11T05:48:37.378Z,68.41
2023-02-11T05:51:05.966Z,72.91
2023-02-11T05:53:34.096Z,75.11
2023-02-11T05:56:02.819Z,71.23
2023-02-11T05:58:31.197Z,69.44
2023-02-11T06:00:59.384Z,66.66
2023-02-11T06:03:27.560Z,68.83
2023-02-11T06:05:55.878Z,74.34
2023-02-11T06:08:24.325Z,71.62
2023-02-11T06:10:52.452Z,68.93
2023-02-11T06:13:20.504Z,67.18
2023-02-11T06:16:02.990Z,65.46
2023-02-11T06:18:33.708Z,63.89
2023-02-11T06:21:02.228Z,66.56
2023-02-11T06:23:30.804Z,65.50
2023-02-11T06:26:03.811Z,66.48
2023-02-11T06:28:32.013Z,63.44
2023-02-11T06:31:06.764Z,62.98
2023-02-11T06:33:36.392Z,62.60
2023-02-11T06:36:12.451Z,63.65
2023-02-11T06:38:40.691Z,64.61
2023-02-11T06:41:13.972Z,65.64
2023-02-11T06:43:42.990Z,65.83
2023-02-11T06:46:11.440Z,65.84
2023-02-11T06:48:39.669Z,67.06
2023-02-11T06:51:10.777Z,72.07
2023-02-11T06:53:42.096Z,72.92
2023-02-11T06:56:15.326Z,73.90
2023-02-11T06:58:44.760Z,70.47
2023-02-11T07:01:16.009Z,76.48
2023-02-11T07:03:45.990Z,71.70
2023-02-11T07:06:18.400Z,68.61
2023-02-11T07:08:47.217Z,65.22
2023-02-11T07:11:24.410Z,76.01
2023-02-11T07:13:56.048Z,68.90
2023-02-11T07:16:24.381Z,70.86
2023-02-11T07:18:52.694Z,69.69
2023-02-11T07:21:22.713Z,65.32
2023-02-11T07:23:51.956Z,62.71
2023-02-11T07:26:29.445Z,61.86
2023-02-11T07:28:57.572Z,68.52
2023-02-11T07:31:28.826Z,69.09
2023-02-11T07:34:00.113Z,66.08
2023-02-11T07:36:29.904Z,64.40
2023-02-11T07:38:59.075Z,62.61
2023-02-11T07:41:28.000Z,65.39
2023-02-11T07:43:56.673Z,62.14
2023-02-11T07:46:27.885Z,57.55
2023-02-11T07:48:56.411Z,61.55
2023-02-11T07:51:30.155Z,61.97
2023-02-11T07:54:00.028Z,60.63
2023-02-11T07:56:30.251Z,65.32
2023-02-11T07:59:03.239Z,67.45
2023-02-11T08:01:32.192Z,68.60
2023-02-11T08:04:02.266Z,61.32
2023-02-11T08:06:33.790Z,58.06
2023-02-11T08:09:07.977Z,56.78
2023-02-11T08:11:36.409Z,55.77
2023-02-11T08:14:04.583Z,56.07
2023-02-11T08:16:35.763Z,64.39
2023-02-11T08:19:06.946Z,56.67
2023-02-11T08:21:35.457Z,55.91
2023-02-11T08:24:04.390Z,56.11
2023-02-11T08:26:35.042Z,54.86
2023-02-11T08:29:11.121Z,55.35
2023-02-11T08:31:42.995Z,55.27
2023-02-11T08:34:14.420Z,52.34
2023-02-11T08:36:43.687Z,53.51
2023-02-11T08:39:21.234Z,51.63
2023-02-11T08:41:52.911Z,53.45
2023-02-11T08:44:22.026Z,50.35
2023-02-11T08:46:51.544Z,56.04
2023-02-11T08:49:20.264Z,50.96
2023-02-11T08:51:49.425Z,49.14
2023-02-11T08:54:18.299Z,47.82
2023-02-11T08:56:46.581Z,48.27
2023-02-11T08:59:15.611Z,46.08
2023-02-11T09:01:44.738Z,50.24
2023-02-11T09:04:14.103Z,46.61
2023-02-11T09:06:42.857Z,45.35
2023-02-11T09:09:13.977Z,45.53
2023-02-11T09:11:44.034Z,44.98
2023-02-11T09:14:21.500Z,44.61
2023-02-11T09:16:50.799Z,47.52
2023-02-11T09:19:20.576Z,50.06
2023-02-11T09:21:49.321Z,46.78
2023-02-11T09:24:18.724Z,47.41
2023-02-11T09:26:47.004Z,47.38
2023-02-11T09:29:15.281Z,46.04
2023-02-11T09:31:43.938Z,45.21
2023-02-11T09:34:12.962Z,46.85
2023-02-11T09:36:41.861Z,46.94
2023-02-11T09:39:14.886Z,46.22
2023-02-11T09:42:20.832Z,46.46
2023-02-11T09:44:50.013Z,50.84
2023-02-11T09:47:31.026Z,48.11
2023-02-11T09:50:04.426Z,47.90
2023-02-11T09:53:03.920Z,48.14
2023-02-11T09:55:40.774Z,48.00
2023-02-11T09:58:14.638Z,48.35
2023-02-11T10:01:07.892Z,49.31
2023-02-11T10:03:43.340Z,50.01
2023-02-11T10:06:19.852Z,49.62
2023-02-11T10:08:53.529Z,49.13
2023-02-11T10:11:39.023Z,48.83
2023-02-11T10:14:39.500Z,49.60
2023-02-11T10:17:26.512Z,49.85
2023-02-11T10:20:17.225Z,49.54
2023-02-11T10:22:52.739Z,50.22
2023-02-11T10:25:35.071Z,48.62
2023-02-11T10:28:14.121Z,48.84
2023-02-11T10:30:57.883Z,48.22
2023-02-11T10:34:05.460Z,48.86
2023-02-11T10:36:36.817Z,48.27
2023-02-11T10:39:14.182Z,47.73
2023-02-11T10:41:46.237Z,49.34
2023-02-11T10:44:37.769Z,48.38
2023-02-11T10:47:16.083Z,48.59
2023-02-11T10:49:46.322Z,49.14
2023-02-11T10:52:30.878Z,49.24
2023-02-11T10:55:14.915Z,49.44
2023-02-11T10:58:03.572Z,49.91
2023-02-11T11:00:39.033Z,49.21
2023-02-11T11:03:34.868Z,49.00
2023-02-11T11:06:07.323Z,49.41
2023-02-11T11:08:49.444Z,50.31
2023-02-11T11:11:20.595Z,49.91
2023-02-11T11:14:01.902Z,49.50
2023-02-11T11:16:35.500Z,50.15
2023-02-11T11:19:06.811Z,50.08
2023-02-11T11:21:55.893Z,50.31
2023-02-11T11:24:44.492Z,53.10
2023-02-11T11:27:23.642Z,53.60
2023-02-11T11:29:55.418Z,52.41
2023-02-11T11:32:28.710Z,53.62
2023-02-11T11:35:02.755Z,51.77
2023-02-11T11:37:33.221Z,51.52
2023-02-11T11:40:23.852Z,52.53
2023-02-11T11:43:14.359Z,51.71
2023-02-11T11:45:58.216Z,51.30
2023-02-11T11:48:47.386Z,50.89
2023-02-11T11:51:16.253Z,51.68
2023-02-11T11:53:53.939Z,51.85
2023-02-11T11:56:25.140Z,52.13
2023-02-11T11:58:54.681Z,52.76
2023-02-11T12:01:51.948Z,53.05
2023-02-11T12:04:41.435Z,53.72
2023-02-11T12:07:29.891Z,52.61
2023-02-11T12:10:10.477Z,52.75
2023-02-11T12:13:00.986Z,53.40
2023-02-11T12:16:04.820Z,54.51
2023-02-11T12:18:39.562Z,53.45
2023-02-11T12:21:23.055Z,52.89
2023-02-11T12:24:00.442Z,53.60
2023-02-11T12:26:57.718Z,54.50
2023-02-11T12:29:41.460Z,55.38
2023-02-11T12:32:32.333Z,55.63
2023-02-11T12:35:32.757Z,55.90
2023-02-11T12:38:48.912Z,56.07
2023-02-11T12:41:45.509Z,56.37
2023-02-11T12:44:29.982Z,56.56
2023-02-11T12:47:04.494Z,57.84
2023-02-11T12:49:41.966Z,57.03
2023-02-11T12:52:32.588Z,56.69
2023-02-11T12:55:09.981Z,57.30
2023-02-11T12:57:42.046Z,57.88
2023-02-11T13:00:13.720Z,58.09
2023-02-11T13:02:54.687Z,58.35
2023-02-11T13:05:38.230Z,59.29
2023-02-11T13:08:30.971Z,59.27
2023-02-11T13:11:21.296Z,59.79
2023-02-11T13:13:52.974Z,59.86
2023-02-11T13:16:42.684Z,59.82
2023-02-11T13:19:14.057Z,60.15
2023-02-11T13:22:02.763Z,59.82
2023-02-11T13:24:56.816Z,59.93
2023-02-11T13:27:40.557Z,59.87
2023-02-11T13:30:58.062Z,59.38
2023-02-11T13:33:46.235Z,59.83
2023-02-11T13:36:23.519Z,59.68
2023-02-11T13:38:55.574Z,59.95
2023-02-11T13:41:24.919Z,59.62
2023-02-11T13:43:58.928Z,59.99
2023-02-11T13:46:49.202Z,59.53
2023-02-11T13:49:40.932Z,59.28
2023-02-11T13:52:25.104Z,59.58
2023-02-11T13:54:56.404Z,59.06
2023-02-11T13:57:30.423Z,59.13
2023-02-11T14:00:01.870Z,59.23
2023-02-11T14:02:50.379Z,59.71
2023-02-11T14:05:37.235Z,59.85
2023-02-11T14:08:39.106Z,59.99
2023-02-11T14:11:32.884Z,60.01
2023-02-11T14:14:19.806Z,59.84
2023-02-11T14:17:03.602Z,60.21
2023-02-11T14:19:35.820Z,60.03
2023-02-11T14:22:30.303Z,59.68
2023-02-11T14:25:04.788Z,60.19
2023-02-11T14:27:52.468Z,59.98
2023-02-11T14:30:29.937Z,60.29
2023-02-11T14:33:09.199Z,60.39
2023-02-11T14:35:55.500Z,60.71
2023-02-11T14:38:45.723Z,61.24
2023-02-11T14:41:20.660Z,61.53
2023-02-11T14:43:53.911Z,62.35
2023-02-11T14:46:24.702Z,62.79
2023-02-11T14:48:57.535Z,63.01
2023-02-11T14:51:31.489Z,62.52
2023-02-11T14:54:15.518Z,62.76
2023-02-11T14:56:44.999Z,62.44
2023-02-11T14:59:23.043Z,62.67
2023-02-11T15:01:56.739Z,62.38
2023-02-11T15:04:36.262Z,62.45
2023-02-11T15:07:08.460Z,63.05
2023-02-11T15:09:51.095Z,63.13
2023-02-11T15:12:28.144Z,63.46
2023-02-11T15:15:00.555Z,63.55
2023-02-11T15:17:32.163Z,63.66
2023-02-11T15:20:02.805Z,67.17
2023-02-11T15:22:36.980Z,67.03
2023-02-11T15:25:16.750Z,65.71
2023-02-11T15:27:53.358Z,65.84
2023-02-11T15:30:21.356Z,69.17
2023-02-11T15:32:59.967Z,66.39
2023-02-11T15:35:31.882Z,67.48
2023-02-11T15:38:00.289Z,65.86
2023-02-11T15:40:34.830Z,65.14
2023-02-11T15:43:06.210Z,64.99
2023-02-11T15:45:54.718Z,67.32
2023-02-11T15:48:26.760Z,71.23
2023-02-11T15:51:01.180Z,68.27
2023-02-11T15:53:37.560Z,68.51
2023-02-11T15:56:21.700Z,67.78
2023-02-11T15:58:54.026Z,67.70
2023-02-11T16:01:42.653Z,69.31
2023-02-11T16:04:31.643Z,67.74
2023-02-11T16:06:59.728Z,71.13
2023-02-11T16:09:36.382Z,71.30
2023-02-11T16:12:25.017Z,74.57
2023-02-11T16:14:53.124Z,71.62
2023-02-11T16:17:30.763Z,73.88
2023-02-11T16:19:58.944Z,76.90
2023-02-11T16:22:30.321Z,73.54
2023-02-11T16:25:00.042Z,74.01
2023-02-11T16:27:42.314Z,76.36
2023-02-11T16:30:35.157Z,77.25
2023-02-11T16:33:05.703Z,79.58
2023-02-11T16:35:33.763Z,78.44
2023-02-11T16:38:01.961Z,80.31
2023-02-11T16:40:30.088Z,78.95
2023-02-11T16:42:58.638Z,74.10
2023-02-11T16:45:27.107Z,72.23
2023-02-11T16:47:55.339Z,72.23
2023-02-11T16:50:25.902Z,75.63
2023-02-11T16:52:54.180Z,75.58
2023-02-11T16:55:22.661Z,73.18
2023-02-11T16:57:50.839Z,74.87
2023-02-11T17:00:19.939Z,77.58
2023-02-11T17:02:48.138Z,77.29
2023-02-11T17:05:23.169Z,76.81
2023-02-11T17:07:52.657Z,76.77
2023-02-11T17:10:23.590Z,76.35
2023-02-11T17:12:52.786Z,77.64
2023-02-11T17:15:21.165Z,77.22
2023-02-11T17:17:49.356Z,77.24
2023-02-11T17:20:17.719Z,74.90
2023-02-11T17:22:45.743Z,76.25
2023-02-11T17:25:14.298Z,75.67
2023-02-11T17:27:43.078Z,74.75
2023-02-11T17:30:13.895Z,75.37
2023-02-11T17:32:42.095Z,75.42
2023-02-11T17:35:10.526Z,75.41
2023-02-11T17:37:38.945Z,79.65
2023-02-11T17:40:08.638Z,78.77
2023-02-11T17:42:36.688Z,76.87
2023-02-11T17:45:05.472Z,76.13
2023-02-11T17:47:33.795Z,77.77
2023-02-11T17:50:03.302Z,77.09
2023-02-11T17:52:31.488Z,77.19
2023-02-11T17:54:59.602Z,75.67
2023-02-11T17:57:28.141Z,77.21
2023-02-11T17:59:56.523Z,75.29
2023-02-11T18:02:24.796Z,75.75
2023-02-11T18:04:53.549Z,76.76
2023-02-11T18:07:21.788Z,75.96
2023-02-11T18:09:50.152Z,75.99
2023-02-11T18:12:26.342Z,76.27
2023-02-11T18:14:57.862Z,78.05
2023-02-11T18:17:26.771Z,76.30
2023-02-11T18:19:58.519Z,75.80
2023-02-11T18:22:26.949Z,77.47
2023-02-11T18:24:55.687Z,76.03
2023-02-11T18:27:23.859Z,76.81
2023-02-11T18:29:52.249Z,76.31
2023-02-11T18:32:20.521Z,78.15
2023-02-11T18:34:48.592Z,78.48
2023-02-11T18:37:17.193Z,78.66
2023-02-11T18:39:45.451Z,81.29
2023-02-11T18:42:13.882Z,80.46
2023-02-11T18:44:42.117Z,77.67
2023-02-11T18:47:10.530Z,78.88
2023-02-11T18:49:39.496Z,77.32
2023-02-11T18:52:07.669Z,77.54
2023-02-11T18:54:35.779Z,75.69
2023-02-11T18:57:04.434Z,75.52
2023-02-11T18:59:32.642Z,75.69
2023-02-11T19:02:00.988Z,74.56
2023-02-11T19:04:29.317Z,74.71
2023-02-11T19:06:59.842Z,73.96
2023-02-11T19:09:28.382Z,73.86
2023-02-11T19:11:58.298Z,75.68
2023-02-11T19:14:31.586Z,74.65
2023-02-11T19:17:02.192Z,74.26
2023-02-11T19:19:33.465Z,78.15
2023-02-11T19:22:03.130Z,77.98
2023-02-11T19:24:31.257Z,82.23
2023-02-11T19:27:01.753Z,81.18
2023-02-11T19:29:33.488Z,79.62
2023-02-11T19:32:06.316Z,81.19
2023-02-11T19:34:41.260Z,80.88
2023-02-11T19:37:12.893Z,78.64
2023-02-11T19:39:43.257Z,78.78
2023-02-11T19:42:12.650Z,78.37
2023-02-11T19:44:40.881Z,77.75
2023-02-11T19:47:10.493Z,77.32
2023-02-11T19:49:38.717Z,77.14
2023-02-11T19:52:06.927Z,77.57
2023-02-11T19:54:35.072Z,77.02
2023-02-11T19:57:03.271Z,77.69
2023-02-11T19:59:31.831Z,78.56
2023-02-11T20:02:01.673Z,80.31
2023-02-11T20:04:32.293Z,80.39
2023-02-11T20:07:00.663Z,82.29
2023-02-11T20:09:31.225Z,80.82
2023-02-11T20:11:59.779Z,79.04
2023-02-11T20:14:28.252Z,80.01
2023-02-11T20:16:56.565Z,80.59
2023-02-11T20:19:25.022Z,82.10
2023-02-11T20:21:56.013Z,80.21
2023-02-11T20:24:26.082Z,83.40
2023-02-11T20:26:57.134Z,83.23
2023-02-11T20:29:26.166Z,83.99
2023-02-11T20:31:55.091Z,82.13
2023-02-11T20:34:24.722Z,83.26
2023-02-11T20:36:53.305Z,81.27
2023-02-11T20:39:23.906Z,81.60
2023-02-11T20:41:53.959Z,82.46
2023-02-11T20:44:23.476Z,80.94
2023-02-11T20:46:54.367Z,79.67
2023-02-11T20:49:24.711Z,79.77
2023-02-11T20:51:54.204Z,79.55
2023-02-11T20:54:24.570Z,80.16
2023-02-11T20:56:56.050Z,78.50
2023-02-11T20:59:24.824Z,78.83
2023-02-11T21:01:56.074Z,77.29
2023-02-11T21:04:30.971Z,78.72
2023-02-11T21:07:02.172Z,77.64
2023-02-11T21:09:33.461Z,77.26
2023-02-11T21:12:03.007Z,81.17
2023-02-11T21:14:31.426Z,79.87
2023-02-11T21:16:59.649Z,80.53
2023-02-11T21:19:27.930Z,79.30
2023-02-11T21:21:57.488Z,78.36
2023-02-11T21:24:25.813Z,79.53
2023-02-11T21:26:55.018Z,79.61
2023-02-11T21:29:23.116Z,78.92
2023-02-11T21:31:51.552Z,79.45
2023-02-11T21:34:20.915Z,80.43
2023-02-11T21:36:51.383Z,81.01
2023-02-11T21:39:20.630Z,79.66
2023-02-11T21:41:48.999Z,79.22
2023-02-11T21:44:17.576Z,78.00
2023-02-11T21:46:45.824Z,76.10
2023-02-11T21:49:14.238Z,73.00
2023-02-11T21:51:43.026Z,71.89
2023-02-11T21:54:11.416Z,71.49
2023-02-11T21:56:40.721Z,70.68
2023-02-11T21:59:13.122Z,70.23
2023-02-11T22:01:41.465Z,69.86
2023-02-11T22:04:09.943Z,70.89
2023-02-11T22:06:38.631Z,71.35
2023-02-11T22:09:09.213Z,70.24
2023-02-11T22:11:37.905Z,69.91
2023-02-11T22:14:06.252Z,69.79
2023-02-11T22:16:35.074Z,69.97
2023-02-11T22:19:03.604Z,69.73
2023-02-11T22:21:31.786Z,70.26
2023-02-11T22:24:00.369Z,71.46
2023-02-11T22:26:28.680Z,71.93
2023-02-11T22:28:57.629Z,72.28
2023-02-11T22:31:28.924Z,72.18
2023-02-11T22:33:58.105Z,71.98
2023-02-11T22:36:34.737Z,71.91
2023-02-11T22:39:09.207Z,71.96
2023-02-11T22:41:40.684Z,71.25
2023-02-11T22:44:10.050Z,70.62
2023-02-11T22:46:38.925Z,71.35
2023-02-11T22:49:07.561Z,72.59
2023-02-11T22:51:35.995Z,73.53
2023-02-11T22:54:06.806Z,73.96
2023-02-11T22:56:35.532Z,74.30
2023-02-11T22:59:07.822Z,74.30
2023-02-11T23:01:36.463Z,74.28
2023-02-11T23:04:07.218Z,74.53
2023-02-11T23:06:36.010Z,74.86
2023-02-11T23:09:09.504Z,75.07
2023-02-11T23:11:38.120Z,76.20
2023-02-11T23:14:08.729Z,75.86
2023-02-11T23:16:36.954Z,77.04
2023-02-11T23:19:08.396Z,78.18
2023-02-11T23:21:39.021Z,76.79
2023-02-11T23:24:12.113Z,76.58
2023-02-11T23:26:42.243Z,78.55
2023-02-11T23:29:11.507Z,79.51
2023-02-11T23:31:44.058Z,79.68
2023-02-11T23:34:17.418Z,79.35
2023-02-11T23:36:45.590Z,79.38
2023-02-11T23:39:15.842Z,79.31
2023-02-11T23:41:44.794Z,80.14
2023-02-11T23:44:13.255Z,82.82
2023-02-11T23:46:41.580Z,81.61
2023-02-11T23:49:10.120Z,82.11
2023-02-11T23:51:38.258Z,82.45
2023-02-11T23:54:06.477Z,82.15
2023-02-11T23:56:37.102Z,81.83
2023-02-11T23:59:06.058Z,84.64
